createdAt,value
2022-08-28T00:00:41.808Z,3.95
2022-08-28T00:03:10.625Z,3.08
2022-08-28T00:05:39.764Z,3.30
2022-08-28T00:08:08.374Z,3.10
2022-08-28T00:10:39.984Z,3.40
2022-08-28T00:13:08.648Z,3.58
2022-08-28T00:15:38.046Z,2.97
2022-08-28T00:18:07.140Z,3.65
2022-08-28T00:20:36.821Z,3.50
2022-08-28T00:23:05.889Z,3.13
2022-08-28T00:25:34.117Z,3.67
2022-08-28T00:28:09.027Z,4.30
2022-08-28T00:30:43.342Z,5.00
2022-08-28T00:33:23.038Z,3.75
2022-08-28T00:35:51.018Z,4.22
2022-08-28T00:38:19.975Z,5.35
2022-08-28T00:40:49.694Z,3.78
2022-08-28T00:43:42.259Z,4.20
2022-08-28T00:46:13.173Z,5.75
2022-08-28T00:48:40.344Z,5.45
2022-08-28T00:51:26.581Z,3.72
2022-08-28T00:53:58.939Z,5.80
2022-08-28T00:56:27.889Z,4.43
2022-08-28T00:58:59.573Z,7.47
2022-08-28T01:01:27.721Z,5.05
2022-08-28T01:03:54.735Z,4.10
2022-08-28T01:06:21.784Z,3.65
2022-08-28T01:08:50.595Z,3.90
2022-08-28T01:11:18.761Z,4.30
2022-08-28T01:13:48.489Z,3.35
2022-08-28T01:16:18.791Z,3.17
2022-08-28T01:18:46.831Z,4.72
2022-08-28T01:21:30.952Z,4.72
2022-08-28T01:24:02.581Z,3.72
2022-08-28T01:26:29.852Z,4.75
2022-08-28T01:28:58.469Z,3.97
2022-08-28T01:31:27.223Z,4.72
2022-08-28T01:33:54.657Z,3.88
2022-08-28T01:36:21.659Z,3.85
2022-08-28T01:38:52.966Z,4.20
2022-08-28T01:41:22.663Z,3.42
2022-08-28T01:43:49.358Z,3.65
2022-08-28T01:46:17.449Z,3.63
2022-08-28T01:48:44.824Z,3.97
2022-08-28T01:51:14.587Z,3.40
2022-08-28T01:53:45.006Z,3.70
2022-08-28T01:56:17.355Z,3.33
2022-08-28T01:58:44.559Z,3.60
2022-08-28T02:01:18.562Z,4.20
2022-08-28T02:03:46.374Z,4.03
2022-08-28T02:06:14.185Z,3.92
2022-08-28T02:08:45.324Z,4.40
2022-08-28T02:11:12.913Z,4.18
2022-08-28T02:13:40.777Z,5.00
2022-08-28T02:16:10.386Z,4.22
2022-08-28T02:18:41.023Z,4.65
2022-08-28T02:21:09.277Z,5.80
2022-08-28T02:23:39.624Z,4.45
2022-08-28T02:26:07.447Z,4.20
2022-08-28T02:28:37.525Z,4.18
2022-08-28T02:31:08.436Z,4.70
2022-08-28T02:33:50.130Z,4.30
2022-08-28T02:36:19.975Z,3.70
2022-08-28T02:38:47.708Z,4.38
2022-08-28T02:41:15.805Z,3.50
2022-08-28T02:43:42.982Z,4.53
2022-08-28T02:46:10.219Z,4.10
2022-08-28T02:48:39.414Z,4.15
2022-08-28T02:51:11.225Z,4.10
2022-08-28T02:53:41.451Z,3.70
2022-08-28T02:56:08.922Z,4.53
2022-08-28T02:58:39.970Z,3.53
2022-08-28T03:01:10.000Z,3.53
2022-08-28T03:03:38.090Z,4.20
2022-08-28T03:06:08.352Z,3.72
2022-08-28T03:08:35.206Z,4.07
2022-08-28T03:11:01.976Z,3.80
2022-08-28T03:13:28.943Z,4.35
2022-08-28T03:15:57.018Z,4.68
2022-08-28T03:18:26.429Z,4.20
2022-08-28T03:20:57.313Z,3.72
2022-08-28T03:23:26.863Z,3.65
2022-08-28T03:25:53.970Z,3.90
2022-08-28T03:28:20.782Z,3.50
2022-08-28T03:30:48.278Z,3.80
2022-08-28T03:33:15.541Z,3.92
2022-08-28T03:35:42.488Z,3.80
2022-08-28T03:38:11.886Z,4.03
2022-08-28T03:40:43.032Z,3.72
2022-08-28T03:43:18.003Z,3.67
2022-08-28T03:45:58.183Z,3.50
2022-08-28T03:48:28.361Z,4.07
2022-08-28T03:50:56.058Z,4.57
2022-08-28T03:53:25.453Z,3.90
2022-08-28T03:55:52.816Z,4.00
2022-08-28T03:58:20.030Z,3.67
2022-08-28T04:00:47.014Z,3.58
2022-08-28T04:03:14.354Z,3.78
2022-08-28T04:05:42.652Z,3.50
2022-08-28T04:08:12.881Z,4.03
2022-08-28T04:10:40.263Z,3.50
2022-08-28T04:13:07.037Z,3.80
2022-08-28T04:15:33.736Z,3.97
2022-08-28T04:18:01.101Z,3.88
2022-08-28T04:20:28.428Z,4.05
2022-08-28T04:22:55.707Z,3.45
2022-08-28T04:25:23.038Z,3.70
2022-08-28T04:27:51.088Z,3.47
2022-08-28T04:30:18.831Z,4.00
2022-08-28T04:32:45.683Z,4.40
2022-08-28T04:35:13.885Z,3.80
2022-08-28T04:37:41.556Z,3.90
2022-08-28T04:40:10.925Z,3.78
2022-08-28T04:42:38.874Z,3.45
2022-08-28T04:45:06.590Z,3.70
2022-08-28T04:47:37.114Z,3.88
2022-08-28T04:50:05.269Z,3.83
2022-08-28T04:52:32.167Z,5.15
2022-08-28T04:54:59.208Z,3.42
2022-08-28T04:57:26.245Z,3.08
2022-08-28T04:59:53.021Z,3.58
2022-08-28T05:02:20.031Z,3.25
2022-08-28T05:04:47.426Z,2.90
2022-08-28T05:07:14.527Z,3.97
2022-08-28T05:09:41.398Z,3.35
2022-08-28T05:12:08.211Z,3.13
2022-08-28T05:14:36.582Z,3.35
2022-08-28T05:17:03.740Z,3.13
2022-08-28T05:19:32.969Z,3.83
2022-08-28T05:21:59.658Z,3.58
2022-08-28T05:24:26.363Z,3.08
2022-08-28T05:26:53.057Z,3.25
2022-08-28T05:29:20.404Z,2.58
2022-08-28T05:31:49.390Z,3.15
2022-08-28T05:34:16.866Z,3.50
2022-08-28T05:36:43.885Z,3.20
2022-08-28T05:39:12.779Z,3.00
2022-08-28T05:41:41.807Z,3.03
2022-08-28T05:44:11.711Z,2.97
2022-08-28T05:46:41.438Z,2.97
2022-08-28T05:49:10.210Z,3.50
2022-08-28T05:51:41.218Z,2.70
2022-08-28T05:54:11.801Z,2.85
2022-08-28T05:56:40.613Z,2.95
2022-08-28T05:59:09.541Z,3.30
2022-08-28T06:01:40.560Z,2.65
2022-08-28T06:04:13.457Z,3.10
2022-08-28T06:06:41.418Z,3.00
2022-08-28T06:09:14.341Z,2.92
2022-08-28T06:11:44.857Z,3.88
2022-08-28T06:14:17.986Z,3.25
2022-08-28T06:16:47.479Z,2.92
2022-08-28T06:19:16.894Z,2.13
2022-08-28T06:21:44.614Z,3.15
2022-08-28T06:24:12.291Z,2.70
2022-08-28T06:26:39.587Z,2.75
2022-08-28T06:29:10.110Z,3.00
2022-08-28T06:31:37.451Z,3.60
2022-08-28T06:34:04.833Z,2.70
2022-08-28T06:36:33.905Z,2.88
2022-08-28T06:39:02.642Z,2.90
2022-08-28T06:41:32.255Z,2.92
2022-08-28T06:43:59.362Z,2.40
2022-08-28T06:46:27.348Z,2.33
2022-08-28T06:48:54.356Z,2.35
2022-08-28T06:51:23.151Z,2.30
2022-08-28T06:53:51.905Z,4.18
2022-08-28T06:56:26.490Z,2.22
2022-08-28T06:58:56.676Z,2.33
2022-08-28T07:01:29.257Z,2.47
2022-08-28T07:04:04.993Z,2.25
2022-08-28T07:06:35.045Z,2.22
2022-08-28T07:09:03.853Z,2.38
2022-08-28T07:11:33.713Z,2.70
2022-08-28T07:14:00.996Z,2.28
2022-08-28T07:16:31.088Z,2.53
2022-08-28T07:18:59.114Z,2.45
2022-08-28T07:21:26.631Z,2.67
2022-08-28T07:23:55.013Z,2.50
2022-08-28T07:26:24.197Z,2.30
2022-08-28T07:29:09.571Z,2.10
2022-08-28T07:31:45.943Z,1.98
2022-08-28T07:34:15.724Z,2.17
2022-08-28T07:36:43.304Z,2.25
2022-08-28T07:39:11.907Z,2.45
2022-08-28T07:41:42.332Z,2.30
2022-08-28T07:44:29.570Z,3.35
2022-08-28T07:46:59.388Z,1.75
2022-08-28T07:49:27.321Z,2.08
2022-08-28T07:51:54.592Z,2.20
2022-08-28T07:54:22.721Z,2.45
2022-08-28T07:56:50.084Z,4.07
2022-08-28T07:59:19.161Z,1.65
2022-08-28T08:01:48.279Z,1.60
2022-08-28T08:04:18.399Z,1.92
2022-08-28T08:06:45.323Z,1.77
2022-08-28T08:09:14.712Z,1.90
2022-08-28T08:11:42.733Z,1.60
2022-08-28T08:14:10.269Z,1.75
2022-08-28T08:16:39.887Z,1.92
2022-08-28T08:19:10.182Z,1.70
2022-08-28T08:21:37.619Z,1.90
2022-08-28T08:24:04.706Z,1.42
2022-08-28T08:26:31.893Z,1.73
2022-08-28T08:28:59.580Z,2.03
2022-08-28T08:31:30.520Z,3.38
2022-08-28T08:34:01.860Z,1.83
2022-08-28T08:36:30.205Z,2.63
2022-08-28T08:38:59.655Z,1.80
2022-08-28T08:41:39.107Z,2.10
2022-08-28T08:44:23.763Z,1.73
2022-08-28T08:47:10.650Z,1.58
2022-08-28T08:49:48.050Z,1.77
2022-08-28T08:52:27.386Z,1.92
2022-08-28T08:55:04.531Z,3.63
2022-08-28T08:57:32.417Z,1.35
2022-08-28T08:59:59.658Z,1.45
2022-08-28T09:02:32.484Z,1.90
2022-08-28T09:05:04.967Z,1.77
2022-08-28T09:07:35.586Z,2.63
2022-08-28T09:10:02.225Z,0.95
2022-08-28T09:12:30.969Z,2.28
2022-08-28T09:15:14.549Z,1.30
2022-08-28T09:20:29.135Z,1.70
2022-08-28T09:23:00.400Z,1.55
2022-08-28T09:25:44.292Z,1.60
2022-08-28T09:28:17.177Z,1.60
2022-08-28T09:30:52.010Z,1.23
2022-08-28T09:33:29.269Z,1.40
2022-08-28T09:35:56.136Z,1.83
2022-08-28T09:38:27.780Z,1.58
2022-08-28T09:41:29.313Z,2.90
2022-08-28T09:43:56.904Z,1.77
2022-08-28T09:46:31.933Z,1.80
2022-08-28T09:49:12.065Z,1.50
2022-08-28T09:51:40.386Z,1.73
2022-08-28T09:54:22.126Z,1.55
2022-08-28T09:56:49.772Z,1.80
2022-08-28T09:59:23.202Z,1.75
2022-08-28T10:02:03.723Z,1.65
2022-08-28T10:04:57.952Z,1.98
2022-08-28T10:07:57.919Z,1.35
2022-08-28T10:10:40.796Z,1.60
2022-08-28T10:13:24.021Z,1.65
2022-08-28T10:16:18.145Z,9.10
2022-08-28T10:18:55.124Z,2.22
2022-08-28T10:21:38.664Z,1.63
2022-08-28T10:24:24.775Z,1.45
2022-08-28T10:27:23.685Z,1.67
2022-08-28T10:30:12.366Z,1.45
2022-08-28T10:57:42.741Z,1.70
2022-08-28T11:00:13.650Z,1.95
2022-08-28T11:03:03.455Z,1.33
2022-08-28T11:05:53.595Z,1.83
2022-08-28T11:08:34.067Z,1.23
2022-08-28T11:11:03.710Z,1.50
2022-08-28T11:13:57.132Z,1.40
2022-08-28T11:16:38.914Z,1.15
2022-08-28T11:19:38.679Z,1.60
2022-08-28T11:22:16.991Z,1.40
2022-08-28T11:25:26.624Z,1.30
2022-08-28T11:28:23.761Z,1.30
2022-08-28T11:31:10.599Z,1.30
2022-08-28T11:33:53.067Z,1.50
2022-08-28T11:36:19.987Z,1.65
2022-08-28T11:38:55.776Z,1.30
2022-08-28T11:41:27.903Z,1.70
2022-08-28T11:44:10.758Z,1.50
2022-08-28T11:46:47.544Z,1.63
2022-08-28T11:49:34.514Z,1.20
2022-08-28T11:52:36.553Z,1.38
2022-08-28T11:55:25.528Z,1.35
2022-08-28T12:01:02.803Z,1.50
2022-08-28T12:03:57.582Z,1.25
2022-08-28T12:06:49.895Z,1.20
2022-08-28T12:09:25.962Z,1.40
2022-08-28T12:11:56.523Z,1.15
2022-08-28T12:14:26.240Z,1.30
2022-08-28T12:17:26.866Z,1.30
2022-08-28T12:20:12.932Z,2.08
2022-08-28T12:22:47.457Z,1.45
2022-08-28T12:25:30.151Z,1.42
2022-08-28T12:28:02.401Z,3.38
2022-08-28T12:30:33.290Z,1.10
2022-08-28T12:33:15.114Z,2.38
2022-08-28T12:35:43.794Z,1.48
2022-08-28T12:38:20.374Z,1.70
2022-08-28T12:40:50.815Z,1.20
2022-08-28T12:43:27.757Z,1.33
2022-08-28T12:46:19.654Z,1.30
2022-08-28T12:48:54.242Z,1.10
2022-08-28T12:53:59.000Z,1.42
2022-08-28T12:56:32.611Z,1.80
2022-08-28T12:59:27.033Z,1.42
2022-08-28T13:01:54.863Z,1.48
2022-08-28T13:04:31.623Z,1.60
2022-08-28T13:07:08.052Z,1.38
2022-08-28T13:09:35.301Z,1.50
2022-08-28T13:12:02.827Z,1.20
2022-08-28T13:14:38.670Z,1.27
2022-08-28T13:17:06.244Z,1.38
2022-08-28T13:19:34.411Z,1.13
2022-08-28T13:22:08.266Z,1.20
2022-08-28T13:24:35.107Z,1.40
2022-08-28T13:27:14.208Z,1.77
2022-08-28T13:29:57.129Z,1.40
2022-08-28T13:32:28.312Z,1.05
2022-08-28T13:35:06.914Z,1.27
2022-08-28T13:37:49.782Z,1.30
2022-08-28T13:40:53.200Z,1.40
2022-08-28T13:43:16.128Z,1.48
2022-08-28T13:45:46.788Z,1.35
2022-08-28T13:48:16.087Z,1.20
2022-08-28T13:50:49.941Z,5.13
2022-08-28T13:53:20.170Z,1.35
2022-08-28T13:55:53.156Z,1.52
2022-08-28T13:58:23.448Z,1.17
2022-08-28T14:00:51.454Z,1.30
2022-08-28T14:03:38.539Z,1.25
2022-08-28T14:06:12.542Z,1.20
2022-08-28T14:08:42.098Z,1.95
2022-08-28T14:11:12.904Z,3.25
2022-08-28T14:13:55.688Z,2.15
2022-08-28T14:16:25.128Z,1.42
2022-08-28T14:18:53.188Z,1.42
2022-08-28T14:21:21.042Z,1.48
2022-08-28T14:23:47.882Z,1.65
2022-08-28T14:26:14.832Z,1.60
2022-08-28T14:28:42.365Z,1.60
2022-08-28T14:31:14.770Z,1.55
2022-08-28T14:33:45.355Z,1.27
2022-08-28T14:36:22.945Z,1.30
2022-08-28T14:38:54.015Z,1.30
2022-08-28T14:41:26.364Z,1.10
2022-08-28T14:43:54.791Z,1.65
2022-08-28T14:46:28.746Z,1.90
2022-08-28T14:49:01.506Z,1.40
2022-08-28T14:51:31.353Z,1.48
2022-08-28T14:53:59.974Z,1.40
2022-08-28T14:56:28.887Z,1.42
2022-08-28T14:59:00.836Z,1.40
2022-08-28T15:01:40.662Z,1.25
2022-08-28T15:04:11.626Z,3.20
2022-08-28T15:06:39.746Z,1.70
2022-08-28T15:09:06.637Z,3.13
2022-08-28T15:11:35.407Z,1.70
2022-08-28T15:14:02.265Z,1.42
2022-08-28T15:16:36.357Z,1.20
2022-08-28T15:19:04.225Z,1.90
2022-08-28T15:21:38.443Z,1.50
2022-08-28T15:24:07.606Z,1.85
2022-08-28T15:26:34.599Z,1.50
2022-08-28T15:29:11.942Z,1.42
2022-08-28T15:31:42.472Z,2.47
2022-08-28T15:34:14.182Z,3.95
2022-08-28T15:36:54.514Z,2.00
2022-08-28T15:39:43.996Z,3.03
2022-08-28T15:42:11.587Z,1.85
2022-08-28T15:44:39.066Z,2.60
2022-08-28T15:47:07.000Z,1.52
2022-08-28T15:49:43.382Z,2.17
2022-08-28T15:52:15.644Z,1.52
2022-08-28T15:54:43.310Z,1.98
2022-08-28T15:57:10.680Z,1.80
2022-08-28T15:59:48.610Z,1.40
2022-08-28T16:02:19.308Z,1.80
2022-08-28T16:04:46.192Z,2.80
2022-08-28T16:07:13.311Z,1.63
2022-08-28T16:09:40.382Z,2.20
2022-08-28T16:12:07.427Z,1.42
2022-08-28T16:14:34.478Z,1.98
2022-08-28T16:17:06.059Z,2.00
2022-08-28T16:19:40.745Z,2.20
2022-08-28T16:22:09.735Z,2.20
2022-08-28T16:24:37.019Z,1.85
2022-08-28T16:27:04.419Z,2.08
2022-08-28T16:29:34.364Z,2.10
2022-08-28T16:32:04.471Z,1.90
2022-08-28T16:34:35.386Z,1.80
2022-08-28T16:37:04.074Z,2.00
2022-08-28T16:39:31.016Z,1.70
2022-08-28T16:41:57.919Z,1.70
2022-08-28T16:44:28.926Z,1.58
2022-08-28T16:46:56.140Z,1.60
2022-08-28T16:49:26.697Z,1.73
2022-08-28T16:51:54.603Z,1.58
2022-08-28T16:54:22.163Z,1.33
2022-08-28T16:56:49.210Z,1.30
2022-08-28T16:59:23.279Z,1.83
2022-08-28T17:01:53.067Z,1.70
2022-08-28T17:04:22.367Z,1.70
2022-08-28T17:06:49.339Z,1.73
2022-08-28T17:09:16.739Z,1.67
2022-08-28T17:11:51.647Z,1.30
2022-08-28T17:14:21.006Z,3.58
2022-08-28T17:16:48.360Z,2.97
2022-08-28T17:19:15.814Z,3.60
2022-08-28T17:22:09.541Z,3.00
2022-08-28T17:24:39.990Z,2.30
2022-08-28T17:27:07.593Z,1.95
2022-08-28T17:29:36.558Z,2.15
2022-08-28T17:32:05.305Z,1.58
2022-08-28T17:34:32.056Z,1.90
2022-08-28T17:36:59.001Z,1.70
2022-08-28T17:39:26.015Z,2.03
2022-08-28T17:41:52.898Z,1.70
2022-08-28T17:44:21.657Z,1.75
2022-08-28T17:46:48.453Z,1.80
2022-08-28T17:49:15.227Z,1.65
2022-08-28T17:51:44.099Z,2.35
2022-08-28T17:54:21.514Z,2.92
2022-08-28T17:56:49.343Z,4.28
2022-08-28T17:59:16.415Z,2.72
2022-08-28T18:01:45.005Z,1.98
2022-08-28T18:04:12.605Z,1.98
2022-08-28T18:06:43.367Z,1.85
2022-08-28T18:09:15.540Z,2.67
2022-08-28T18:11:44.655Z,2.13
2022-08-28T18:14:11.858Z,1.40
2022-08-28T18:16:41.086Z,1.77
2022-08-28T18:19:10.329Z,2.35
2022-08-28T18:21:38.911Z,1.92
2022-08-28T18:24:07.230Z,2.35
2022-08-28T18:26:34.120Z,2.20
2022-08-28T18:29:01.053Z,1.70
2022-08-28T18:31:31.355Z,1.80
2022-08-28T18:33:59.748Z,1.80
2022-08-28T18:36:27.168Z,2.42
2022-08-28T18:38:54.075Z,2.15
2022-08-28T18:41:21.270Z,2.92
2022-08-28T18:43:55.981Z,2.10
2022-08-28T18:46:25.283Z,2.55
2022-08-28T18:48:55.523Z,3.53
2022-08-28T18:51:22.498Z,3.22
2022-08-28T18:53:52.162Z,1.70
2022-08-28T18:56:19.262Z,4.15
2022-08-28T18:58:47.875Z,2.33
2022-08-28T19:01:16.035Z,1.85
2022-08-28T19:03:43.112Z,2.25
2022-08-28T19:06:13.348Z,1.70
2022-08-28T19:08:40.569Z,1.90
2022-08-28T19:11:14.268Z,1.52
2022-08-28T19:13:41.780Z,2.00
2022-08-28T19:16:09.638Z,2.10
2022-08-28T19:18:36.613Z,1.80
2022-08-28T19:21:16.314Z,2.05
2022-08-28T19:23:45.411Z,1.80
2022-08-28T19:26:23.124Z,2.28
2022-08-28T19:28:50.692Z,2.45
2022-08-28T19:31:18.326Z,1.60
2022-08-28T19:33:46.829Z,1.83
2022-08-28T19:36:14.328Z,1.50
2022-08-28T19:38:41.380Z,2.10
2022-08-28T19:41:10.235Z,1.77
2022-08-28T19:43:43.071Z,1.88
2022-08-28T19:46:18.587Z,1.88
2022-08-28T19:48:50.322Z,1.77
2022-08-28T19:51:22.375Z,2.00
2022-08-28T19:56:32.421Z,1.80
2022-08-28T19:59:01.757Z,1.85
2022-08-28T20:01:31.475Z,1.70
2022-08-28T20:04:00.381Z,1.60
2022-08-28T20:06:30.339Z,1.60
2022-08-28T20:09:00.759Z,1.67
2022-08-28T20:11:30.371Z,1.50
2022-08-28T20:14:04.125Z,1.65
2022-08-28T20:16:34.596Z,1.80
2022-08-28T20:19:05.179Z,1.60
2022-08-28T20:21:37.121Z,1.92
2022-08-28T20:24:10.601Z,1.40
2022-08-28T20:26:37.781Z,1.60
2022-08-28T20:29:09.510Z,1.80
2022-08-28T20:31:40.515Z,1.70
2022-08-28T20:34:09.808Z,1.73
2022-08-28T20:36:36.727Z,1.40
2022-08-28T20:39:12.579Z,1.70
2022-08-28T20:41:41.698Z,1.70
2022-08-28T20:44:10.873Z,1.70
2022-08-28T20:46:41.256Z,2.10
2022-08-28T20:49:12.540Z,2.00
2022-08-28T20:51:52.820Z,1.50
2022-08-28T20:54:21.570Z,1.80
2022-08-28T20:56:49.493Z,1.95
2022-08-28T20:59:16.880Z,2.20
2022-08-28T21:01:43.715Z,1.83
2022-08-28T21:04:13.529Z,1.75
2022-08-28T21:06:40.245Z,1.80
2022-08-28T21:09:06.994Z,1.75
2022-08-28T21:11:36.998Z,1.75
2022-08-28T21:14:07.008Z,1.70
2022-08-28T21:16:38.011Z,2.30
2022-08-28T21:19:15.875Z,1.58
2022-08-28T21:21:44.077Z,2.10
2022-08-28T21:24:13.221Z,1.83
2022-08-28T21:26:50.420Z,1.70
2022-08-28T21:29:20.940Z,2.00
2022-08-28T21:31:50.707Z,2.53
2022-08-28T21:34:18.747Z,1.83
2022-08-28T21:36:50.262Z,2.22
2022-08-28T21:39:20.674Z,1.85
2022-08-28T21:41:48.612Z,1.83
2022-08-28T21:44:15.936Z,1.80
2022-08-28T21:46:42.647Z,1.75
2022-08-28T21:49:09.948Z,1.70
2022-08-28T21:51:37.000Z,2.17
2022-08-28T21:54:03.866Z,1.90
2022-08-28T21:56:31.177Z,2.33
2022-08-28T21:58:58.164Z,1.88
2022-08-28T22:01:26.529Z,2.42
2022-08-28T22:03:55.514Z,2.28
2022-08-28T22:06:24.015Z,1.90
2022-08-28T22:08:51.998Z,1.77
2022-08-28T22:11:24.875Z,2.15
2022-08-28T22:13:53.777Z,2.05
2022-08-28T22:16:21.473Z,2.10
2022-08-28T22:18:48.425Z,1.95
2022-08-28T22:21:36.445Z,2.40
2022-08-28T22:24:03.643Z,2.15
2022-08-28T22:26:30.376Z,2.00
2022-08-28T22:28:58.187Z,2.17
2022-08-28T22:31:25.125Z,2.83
2022-08-28T22:33:52.497Z,2.55
2022-08-28T22:36:20.782Z,2.10
2022-08-28T22:38:50.480Z,2.17
2022-08-28T22:41:20.659Z,2.73
2022-08-28T22:43:49.690Z,2.50
2022-08-28T22:46:18.902Z,2.00
2022-08-28T22:48:46.152Z,2.65
2022-08-28T22:51:15.669Z,1.90
2022-08-28T22:53:43.735Z,2.30
2022-08-28T22:56:11.768Z,2.20
2022-08-28T22:58:39.685Z,1.92
2022-08-28T23:01:13.430Z,2.00
2022-08-28T23:03:41.043Z,2.20
2022-08-28T23:06:08.004Z,1.88
2022-08-28T23:08:35.385Z,1.88
2022-08-28T23:11:02.574Z,2.10
2022-08-28T23:13:30.097Z,2.03
2022-08-28T23:15:57.267Z,2.28
2022-08-28T23:18:25.036Z,1.77
2022-08-28T23:20:52.537Z,2.72
2022-08-28T23:23:19.539Z,2.10
2022-08-28T23:25:47.116Z,1.92
2022-08-28T23:28:13.782Z,2.25
2022-08-28T23:30:48.279Z,2.42
2022-08-28T23:33:23.764Z,2.03
2022-08-28T23:35:52.258Z,2.30
2022-08-28T23:38:19.456Z,2.17
2022-08-28T23:40:48.272Z,2.10
2022-08-28T23:43:20.890Z,1.92
2022-08-28T23:45:48.469Z,2.45
2022-08-28T23:48:15.497Z,2.95
2022-08-28T23:50:43.492Z,2.70
2022-08-28T23:53:10.631Z,3.20
2022-08-28T23:55:38.745Z,2.58
2022-08-28T23:58:06.785Z,2.80
